createdAt,value
2016-12-08T00:00:55.646Z,0
2016-12-08T00:01:55.834Z,0
2016-12-08T00:02:55.262Z,0
2016-12-08T00:03:55.932Z,0
2016-12-08T00:04:55.426Z,0
2016-12-08T00:05:55.608Z,0
2016-12-08T00:06:55.431Z,0
2016-12-08T00:07:55.796Z,0
2016-12-08T00:08:55.706Z,0
2016-12-08T00:09:55.391Z,0
2016-12-08T00:10:55.932Z,0
2016-12-08T00:11:56.041Z,0
2016-12-08T00:12:55.566Z,0
2016-12-08T00:13:55.272Z,0
2016-12-08T00:14:55.618Z,0
2016-12-08T00:15:55.303Z,0
2016-12-08T00:16:55.196Z,0
2016-12-08T00:17:55.897Z,0
2016-12-08T00:18:55.460Z,0
2016-12-08T00:19:55.402Z,0
2016-12-08T00:20:55.202Z,0
2016-12-08T00:21:56.073Z,0
2016-12-08T00:22:56.322Z,0
2016-12-08T00:23:56.637Z,0
2016-12-08T00:24:56.308Z,0
2016-12-08T00:25:55.706Z,0
2016-12-08T00:26:55.236Z,0
2016-12-08T00:27:55.584Z,0
2016-12-08T00:28:55.445Z,0
2016-12-08T00:29:55.777Z,0
2016-12-08T00:30:55.448Z,0
2016-12-08T00:31:55.344Z,0
2016-12-08T00:32:55.312Z,0
2016-12-08T00:33:56.376Z,0
2016-12-08T00:34:55.993Z,0
2016-12-08T00:35:56.838Z,0
2016-12-08T00:36:55.369Z,0
2016-12-08T00:37:55.456Z,0
2016-12-08T00:38:55.691Z,0
2016-12-08T00:39:55.537Z,0
2016-12-08T00:40:56.546Z,0
2016-12-08T00:41:56.029Z,0
2016-12-08T00:42:55.633Z,0
2016-12-08T00:43:55.904Z,0
2016-12-08T00:44:55.530Z,0
2016-12-08T00:45:55.395Z,0
2016-12-08T00:46:55.684Z,0
2016-12-08T00:47:56.708Z,0
2016-12-08T00:48:55.517Z,0
2016-12-08T00:49:56.058Z,0
2016-12-08T00:50:55.877Z,0
2016-12-08T00:51:56.215Z,0
2016-12-08T00:52:55.891Z,0
2016-12-08T00:53:56.778Z,0
2016-12-08T00:54:55.879Z,0
2016-12-08T00:55:55.652Z,0
2016-12-08T00:56:56.283Z,0
2016-12-08T00:57:56.661Z,0
2016-12-08T00:58:55.816Z,0
2016-12-08T00:59:55.410Z,0
2016-12-08T01:00:55.936Z,0
2016-12-08T01:01:55.852Z,0
2016-12-08T01:02:56.133Z,0
2016-12-08T01:03:57.257Z,0
2016-12-08T01:04:55.534Z,0
2016-12-08T01:05:55.970Z,0
2016-12-08T01:06:57.935Z,0
2016-12-08T01:07:57.263Z,0
2016-12-08T01:08:56.098Z,0
2016-12-08T01:09:56.511Z,0
2016-12-08T01:10:56.639Z,0
2016-12-08T01:11:56.668Z,0
2016-12-08T01:12:55.873Z,0
2016-12-08T01:13:56.564Z,0
2016-12-08T01:14:56.274Z,0
2016-12-08T01:15:55.817Z,0
2016-12-08T01:16:56.637Z,0
2016-12-08T01:17:56.600Z,0
2016-12-08T01:18:56.210Z,0
2016-12-08T01:19:56.254Z,0
2016-12-08T01:20:56.149Z,0
2016-12-08T01:21:55.894Z,0
2016-12-08T01:22:56.601Z,0
2016-12-08T01:23:56.928Z,0
2016-12-08T01:24:55.933Z,0
2016-12-08T01:25:56.066Z,0
2016-12-08T01:26:55.722Z,0
2016-12-08T01:27:56.528Z,0
2016-12-08T01:28:56.260Z,0
2016-12-08T01:29:56.040Z,0
2016-12-08T01:30:55.821Z,0
2016-12-08T01:31:56.369Z,0
2016-12-08T01:32:56.977Z,0
2016-12-08T01:33:56.898Z,0
2016-12-08T01:34:56.260Z,0
2016-12-08T01:35:56.473Z,0
2016-12-08T01:36:58.135Z,0
2016-12-08T01:37:56.154Z,0
2016-12-08T01:38:57.174Z,0
2016-12-08T01:39:56.830Z,0
2016-12-08T01:40:57.024Z,0
2016-12-08T01:41:56.208Z,0
2016-12-08T01:42:57.283Z,0
2016-12-08T01:43:56.454Z,0
2016-12-08T01:44:57.030Z,0
2016-12-08T01:45:56.826Z,0
2016-12-08T01:46:56.543Z,0
2016-12-08T01:47:56.469Z,0
2016-12-08T01:48:56.575Z,0
2016-12-08T01:49:56.680Z,0
2016-12-08T01:50:56.689Z,0
2016-12-08T01:51:57.513Z,0
2016-12-08T01:52:56.806Z,0
2016-12-08T01:53:56.413Z,0
2016-12-08T01:54:56.536Z,0
2016-12-08T01:55:57.188Z,0
2016-12-08T01:56:56.927Z,0
2016-12-08T01:57:56.891Z,0
2016-12-08T01:58:56.937Z,0
2016-12-08T01:59:56.411Z,0
2016-12-08T02:00:57.403Z,0
2016-12-08T02:01:56.246Z,0
2016-12-08T02:02:57.694Z,0
2016-12-08T02:03:57.054Z,0
2016-12-08T02:04:56.728Z,0
2016-12-08T02:05:56.690Z,0
2016-12-08T02:06:56.597Z,0
2016-12-08T02:07:56.871Z,0
2016-12-08T02:08:57.175Z,0
2016-12-08T02:09:56.766Z,0
2016-12-08T02:10:58.056Z,0
2016-12-08T02:11:56.990Z,0
2016-12-08T02:12:57.553Z,0
2016-12-08T02:13:57.331Z,0
2016-12-08T02:14:57.742Z,0
2016-12-08T02:15:56.738Z,0
2016-12-08T02:16:56.845Z,0
2016-12-08T02:17:57.551Z,0
2016-12-08T02:18:57.395Z,0
2016-12-08T02:19:57.968Z,0
2016-12-08T02:20:57.546Z,0
2016-12-08T02:21:56.992Z,0
2016-12-08T02:22:58.655Z,0
2016-12-08T02:23:58.188Z,0
2016-12-08T02:24:57.300Z,0
2016-12-08T02:25:56.620Z,0
2016-12-08T02:26:57.508Z,0
2016-12-08T02:27:56.613Z,0
2016-12-08T02:28:57.796Z,0
2016-12-08T02:29:57.260Z,0
2016-12-08T02:30:57.781Z,0
2016-12-08T02:31:57.156Z,0
2016-12-08T02:32:56.593Z,0
2016-12-08T02:33:56.953Z,0
2016-12-08T02:34:56.801Z,0
2016-12-08T02:35:57.497Z,0
2016-12-08T02:36:56.988Z,0
2016-12-08T02:37:56.792Z,0
2016-12-08T02:38:57.042Z,0
2016-12-08T02:39:57.991Z,0
2016-12-08T02:40:57.547Z,0
2016-12-08T02:41:58.521Z,0
2016-12-08T02:42:57.227Z,0
2016-12-08T02:43:58.274Z,0
2016-12-08T02:44:57.704Z,0
2016-12-08T02:45:56.895Z,0
2016-12-08T02:46:57.033Z,0
2016-12-08T02:47:57.013Z,0
2016-12-08T02:48:57.500Z,0
2016-12-08T02:49:57.283Z,0
2016-12-08T02:50:57.666Z,0
2016-12-08T02:51:57.458Z,0
2016-12-08T02:52:58.170Z,0
2016-12-08T02:53:57.489Z,0
2016-12-08T02:54:57.312Z,0
2016-12-08T02:55:57.312Z,0
2016-12-08T02:56:57.899Z,0
2016-12-08T02:57:57.862Z,0
2016-12-08T02:58:57.559Z,0
2016-12-08T02:59:57.140Z,0
2016-12-08T03:00:57.630Z,0
2016-12-08T03:01:57.666Z,0
2016-12-08T03:02:57.207Z,0
2016-12-08T03:03:58.125Z,0
2016-12-08T03:04:57.113Z,0
2016-12-08T03:05:57.126Z,0
2016-12-08T03:06:57.978Z,0
2016-12-08T03:07:57.707Z,0
2016-12-08T03:08:57.775Z,0
2016-12-08T03:09:58.020Z,0
2016-12-08T03:10:58.252Z,0
2016-12-08T03:11:57.420Z,0
2016-12-08T03:12:56.956Z,0
2016-12-08T03:13:57.595Z,0
2016-12-08T03:14:57.720Z,0
2016-12-08T03:15:59.072Z,0
2016-12-08T03:16:58.116Z,0
2016-12-08T03:17:58.509Z,0
2016-12-08T03:18:58.019Z,0
2016-12-08T03:19:58.544Z,0
2016-12-08T03:20:57.775Z,0
2016-12-08T03:21:58.311Z,0
2016-12-08T03:22:57.512Z,0
2016-12-08T03:23:58.109Z,0
2016-12-08T03:24:57.876Z,0
2016-12-08T03:25:57.861Z,0
2016-12-08T03:26:57.215Z,0
2016-12-08T03:27:57.395Z,0
2016-12-08T03:28:58.479Z,0
2016-12-08T03:29:57.880Z,0
2016-12-08T03:30:58.582Z,0
2016-12-08T03:31:58.036Z,0
2016-12-08T03:32:58.520Z,0
2016-12-08T03:33:58.479Z,0
2016-12-08T03:35:01.404Z,0
2016-12-08T03:35:57.531Z,0
2016-12-08T03:36:57.933Z,0
2016-12-08T03:37:58.054Z,0
2016-12-08T03:38:58.060Z,0
2016-12-08T03:39:57.998Z,0
2016-12-08T03:40:57.717Z,0
2016-12-08T03:41:57.663Z,0
2016-12-08T03:42:57.644Z,0
2016-12-08T03:43:57.876Z,0
2016-12-08T03:44:57.773Z,0
2016-12-08T03:45:58.543Z,0
2016-12-08T03:46:57.904Z,0
2016-12-08T03:47:58.648Z,0
2016-12-08T03:48:58.012Z,0
2016-12-08T03:49:58.450Z,0
2016-12-08T03:50:57.574Z,0
2016-12-08T03:51:57.661Z,0
2016-12-08T03:52:58.894Z,0
2016-12-08T03:53:57.908Z,0
2016-12-08T03:54:58.122Z,0
2016-12-08T03:55:59.187Z,0
2016-12-08T03:56:58.341Z,0
2016-12-08T03:57:58.067Z,0
2016-12-08T03:58:58.201Z,0
2016-12-08T03:59:58.528Z,0
2016-12-08T04:00:58.017Z,0
2016-12-08T04:01:58.286Z,0
2016-12-08T04:02:58.307Z,0
2016-12-08T04:03:58.484Z,0
2016-12-08T04:04:58.217Z,0
2016-12-08T04:05:58.341Z,0
2016-12-08T04:06:58.220Z,0
2016-12-08T04:07:57.687Z,0
2016-12-08T04:08:58.509Z,0
2016-12-08T04:09:57.841Z,0
2016-12-08T04:10:58.674Z,0
2016-12-08T04:11:59.158Z,0
2016-12-08T04:12:58.239Z,0
2016-12-08T04:13:58.390Z,0
2016-12-08T04:14:58.574Z,0
2016-12-08T04:15:57.713Z,0
2016-12-08T04:16:57.707Z,0
2016-12-08T04:17:58.487Z,0
2016-12-08T04:18:58.756Z,0
2016-12-08T04:19:58.168Z,0
2016-12-08T04:20:58.768Z,0
2016-12-08T04:21:58.085Z,0
2016-12-08T04:22:58.625Z,0
2016-12-08T04:23:58.862Z,0
2016-12-08T04:24:58.240Z,0
2016-12-08T04:25:58.767Z,0
2016-12-08T04:26:58.413Z,0
2016-12-08T04:27:58.399Z,0
2016-12-08T04:28:58.126Z,0
2016-12-08T04:29:58.200Z,0
2016-12-08T04:30:59.002Z,0
2016-12-08T04:31:59.076Z,0
2016-12-08T04:32:58.736Z,0
2016-12-08T04:33:59.323Z,0
2016-12-08T04:34:57.999Z,0
2016-12-08T04:35:58.387Z,0
2016-12-08T04:36:58.647Z,0
2016-12-08T04:37:59.039Z,0
2016-12-08T04:38:58.693Z,0
2016-12-08T04:39:58.427Z,0
2016-12-08T04:40:59.076Z,0
2016-12-08T04:41:58.551Z,0
2016-12-08T04:42:59.054Z,0
2016-12-08T04:43:58.631Z,0
2016-12-08T04:44:58.568Z,0
2016-12-08T04:45:58.246Z,0
2016-12-08T04:46:58.304Z,0
2016-12-08T04:47:58.302Z,0
2016-12-08T04:48:58.767Z,0
2016-12-08T04:49:59.360Z,0
2016-12-08T04:50:58.703Z,0
2016-12-08T04:51:58.880Z,0
2016-12-08T04:52:59.531Z,0
2016-12-08T04:53:58.360Z,0
2016-12-08T04:54:59.145Z,0
2016-12-08T04:55:59.306Z,0
2016-12-08T04:56:59.223Z,0
2016-12-08T04:57:58.667Z,0
2016-12-08T04:58:59.435Z,0
2016-12-08T04:59:58.758Z,0
2016-12-08T05:00:58.742Z,0
2016-12-08T05:01:59.738Z,0
2016-12-08T05:02:59.178Z,0
2016-12-08T05:03:59.385Z,0
2016-12-08T05:04:59.172Z,0
2016-12-08T05:06:00.140Z,0
2016-12-08T05:06:58.639Z,0
2016-12-08T05:07:58.672Z,0
2016-12-08T05:08:58.708Z,0
2016-12-08T05:10:00.220Z,0
2016-12-08T05:10:59.322Z,0
2016-12-08T05:11:59.721Z,0
2016-12-08T05:12:59.922Z,0
2016-12-08T05:13:58.977Z,0
2016-12-08T05:14:59.743Z,0
2016-12-08T05:15:59.164Z,0
2016-12-08T05:16:59.382Z,0
2016-12-08T05:17:59.813Z,0
2016-12-08T05:18:59.140Z,0
2016-12-08T05:19:59.247Z,0
2016-12-08T05:20:59.008Z,0
2016-12-08T05:21:59.232Z,0
2016-12-08T05:22:59.507Z,0
2016-12-08T05:23:59.789Z,0
2016-12-08T05:25:00.477Z,0
2016-12-08T05:26:00.254Z,0
2016-12-08T05:27:00.570Z,0
2016-12-08T05:28:00.865Z,0
2016-12-08T05:29:00.227Z,0
2016-12-08T05:29:59.446Z,0
2016-12-08T05:30:59.550Z,0
2016-12-08T05:32:00.681Z,0
2016-12-08T05:32:59.136Z,0
2016-12-08T05:34:01.605Z,0
2016-12-08T05:34:59.868Z,0
2016-12-08T05:36:00.683Z,0
2016-12-08T05:37:00.540Z,0
2016-12-08T05:37:59.345Z,0
2016-12-08T05:38:59.657Z,0
2016-12-08T05:39:59.203Z,0
2016-12-08T05:41:00.361Z,0
2016-12-08T05:41:59.764Z,0
2016-12-08T05:42:59.825Z,0
2016-12-08T05:43:59.316Z,0
2016-12-08T05:45:00.431Z,0
2016-12-08T05:46:00.924Z,0
2016-12-08T05:47:00.388Z,0
2016-12-08T05:48:00.717Z,0
2016-12-08T05:48:59.327Z,0
2016-12-08T05:50:00.517Z,0
2016-12-08T05:51:00.484Z,0
2016-12-08T05:52:00.629Z,0
2016-12-08T05:52:59.727Z,0
2016-12-08T05:54:00.560Z,0
2016-12-08T05:55:00.395Z,0
2016-12-08T05:56:00.421Z,0
2016-12-08T05:56:59.080Z,0
2016-12-08T05:58:00.410Z,0
2016-12-08T05:59:00.543Z,0
2016-12-08T05:59:59.902Z,0
2016-12-08T06:01:00.171Z,0
2016-12-08T06:02:00.907Z,0
2016-12-08T06:03:00.997Z,0
2016-12-08T06:03:59.923Z,0
2016-12-08T06:04:59.490Z,0
2016-12-08T06:05:59.344Z,0
2016-12-08T06:07:00.997Z,0
2016-12-08T06:08:00.819Z,0
2016-12-08T06:09:00.751Z,0
2016-12-08T06:10:00.780Z,0
2016-12-08T06:11:01.646Z,0
2016-12-08T06:12:01.230Z,0
2016-12-08T06:13:01.742Z,0
2016-12-08T06:14:00.542Z,0
2016-12-08T06:14:59.971Z,0
2016-12-08T06:16:00.451Z,0
2016-12-08T06:17:00.909Z,0
2016-12-08T06:18:00.194Z,0
2016-12-08T06:18:59.427Z,0
2016-12-08T06:20:00.935Z,0
2016-12-08T06:21:00.569Z,0
2016-12-08T06:21:59.744Z,0
2016-12-08T06:23:01.821Z,0
2016-12-08T06:23:59.902Z,0
2016-12-08T06:25:00.508Z,0
2016-12-08T06:26:00.674Z,0
2016-12-08T06:26:59.422Z,0
2016-12-08T06:28:00.239Z,0
2016-12-08T06:29:00.332Z,0
2016-12-08T06:30:00.113Z,0
2016-12-08T06:31:00.355Z,0
2016-12-08T06:31:59.795Z,0
2016-12-08T06:32:59.643Z,0
2016-12-08T06:34:00.382Z,0
2016-12-08T06:35:00.574Z,0
2016-12-08T06:36:01.119Z,0
2016-12-08T06:37:00.138Z,0
2016-12-08T06:38:00.287Z,0
2016-12-08T06:38:59.824Z,0
2016-12-08T06:40:00.969Z,0
2016-12-08T06:41:01.155Z,4
2016-12-08T06:42:00.379Z,4
2016-12-08T06:43:00.273Z,0
2016-12-08T06:44:00.149Z,4
2016-12-08T06:45:00.716Z,4
2016-12-08T06:46:00.160Z,4
2016-12-08T06:47:00.135Z,4
2016-12-08T06:48:00.339Z,8
2016-12-08T06:48:59.984Z,4
2016-12-08T06:50:00.564Z,8
2016-12-08T06:51:00.028Z,8
2016-12-08T06:52:00.396Z,12
2016-12-08T06:53:00.601Z,12
2016-12-08T06:54:00.679Z,16
2016-12-08T06:55:00.372Z,16
2016-12-08T06:55:59.850Z,24
2016-12-08T06:57:00.139Z,24
2016-12-08T06:58:01.473Z,28
2016-12-08T06:59:00.142Z,32
2016-12-08T07:00:00.427Z,40
2016-12-08T07:01:00.353Z,44
2016-12-08T07:02:01.108Z,52
2016-12-08T07:03:00.182Z,56
2016-12-08T07:03:59.968Z,60
2016-12-08T07:04:59.735Z,68
2016-12-08T07:06:00.124Z,76
2016-12-08T07:07:00.946Z,84
2016-12-08T07:08:00.505Z,96
2016-12-08T07:08:59.703Z,104
2016-12-08T07:10:00.458Z,116
2016-12-08T07:11:00.295Z,124
2016-12-08T07:11:59.842Z,136
2016-12-08T07:13:00.195Z,144
2016-12-08T07:14:00.645Z,160
2016-12-08T07:15:00.752Z,168
2016-12-08T07:16:00.813Z,184
2016-12-08T07:17:00.873Z,200
2016-12-08T07:18:00.998Z,216
2016-12-08T07:19:00.877Z,232
2016-12-08T07:21:02.623Z,264
2016-12-08T07:22:00.486Z,288
2016-12-08T07:23:00.251Z,308
2016-12-08T07:24:00.792Z,336
2016-12-08T07:25:00.698Z,368
2016-12-08T07:26:00.457Z,404
2016-12-08T07:27:00.871Z,436
2016-12-08T07:28:00.870Z,476
2016-12-08T07:29:01.765Z,516
2016-12-08T07:30:00.412Z,552
2016-12-08T07:31:01.238Z,592
2016-12-08T07:32:00.811Z,632
2016-12-08T07:33:00.653Z,676
2016-12-08T07:34:00.601Z,724
2016-12-08T07:35:00.386Z,776
2016-12-08T07:36:00.379Z,824
2016-12-08T07:37:00.817Z,864
2016-12-08T07:38:00.395Z,904
2016-12-08T07:39:01.517Z,944
2016-12-08T07:40:01.908Z,984
2016-12-08T07:41:00.925Z,1024
2016-12-08T07:42:02.069Z,1064
2016-12-08T07:43:03.314Z,1100
2016-12-08T07:44:01.561Z,1132
2016-12-08T07:45:01.636Z,1156
2016-12-08T07:46:01.494Z,1176
2016-12-08T07:47:00.933Z,1188
2016-12-08T07:48:00.821Z,1184
2016-12-08T07:49:01.001Z,1180
2016-12-08T07:50:01.387Z,1184
2016-12-08T07:51:01.400Z,1188
2016-12-08T07:52:00.861Z,1196
2016-12-08T07:53:00.857Z,1208
2016-12-08T07:54:00.612Z,1228
2016-12-08T07:55:01.417Z,1252
2016-12-08T07:56:00.854Z,1284
2016-12-08T07:57:01.097Z,1320
2016-12-08T07:58:00.318Z,1356
2016-12-08T07:59:00.390Z,1400
2016-12-08T08:00:02.142Z,1448
2016-12-08T08:01:01.103Z,1504
2016-12-08T08:02:00.644Z,1560
2016-12-08T08:03:01.027Z,1628
2016-12-08T08:04:00.634Z,1704
2016-12-08T08:05:01.050Z,1784
2016-12-08T08:06:00.504Z,1880
2016-12-08T08:07:00.794Z,1976
2016-12-08T08:08:01.473Z,2080
2016-12-08T08:09:01.404Z,2188
2016-12-08T08:10:00.384Z,2304
2016-12-08T08:11:00.805Z,2436
2016-12-08T08:12:01.609Z,2592
2016-12-08T08:13:00.636Z,2768
2016-12-08T08:14:00.866Z,2936
2016-12-08T08:15:00.956Z,3092
2016-12-08T08:16:01.563Z,3260
2016-12-08T08:17:00.951Z,3420
2016-12-08T08:18:01.734Z,3564
2016-12-08T08:19:00.898Z,3656
2016-12-08T08:20:01.216Z,3716
2016-12-08T08:21:01.196Z,3748
2016-12-08T08:22:01.394Z,3760
2016-12-08T08:23:01.679Z,3756
2016-12-08T08:24:01.641Z,3744
2016-12-08T08:25:01.782Z,3720
2016-12-08T08:26:01.511Z,3696
2016-12-08T08:27:02.028Z,3684
2016-12-08T08:28:02.478Z,3660
2016-12-08T08:29:00.573Z,3624
2016-12-08T08:30:01.723Z,3584
2016-12-08T08:31:01.279Z,3592
2016-12-08T08:32:00.623Z,3644
2016-12-08T08:33:01.205Z,3680
2016-12-08T08:34:01.079Z,3732
2016-12-08T08:35:00.832Z,3724
2016-12-08T08:36:01.704Z,3708
2016-12-08T08:37:01.721Z,3660
2016-12-08T08:38:01.940Z,3656
2016-12-08T08:39:01.140Z,3712
2016-12-08T08:40:01.029Z,3724
2016-12-08T08:41:01.932Z,3720
2016-12-08T08:42:01.204Z,3712
2016-12-08T08:43:01.680Z,3832
2016-12-08T08:44:01.793Z,3892
2016-12-08T08:45:01.896Z,4024
2016-12-08T08:46:01.948Z,4056
2016-12-08T08:47:01.617Z,4052
2016-12-08T08:48:01.441Z,4144
2016-12-08T08:49:01.673Z,4324
2016-12-08T08:50:01.583Z,4448
2016-12-08T08:51:02.182Z,4624
2016-12-08T08:52:02.052Z,4652
2016-12-08T08:53:01.979Z,4848
2016-12-08T08:54:01.037Z,4896
2016-12-08T08:55:01.105Z,5048
2016-12-08T08:56:02.065Z,5164
2016-12-08T08:57:01.888Z,5240
2016-12-08T08:58:02.065Z,5284
2016-12-08T08:59:01.390Z,5336
2016-12-08T09:00:01.117Z,5316
2016-12-08T09:01:01.849Z,5256
2016-12-08T09:02:01.957Z,5108
2016-12-08T09:03:01.320Z,5020
2016-12-08T09:04:01.225Z,4960
2016-12-08T09:05:01.793Z,4860
2016-12-08T09:06:01.029Z,4816
2016-12-08T09:07:02.466Z,4792
2016-12-08T09:08:02.040Z,4864
2016-12-08T09:09:01.696Z,4644
2016-12-08T09:10:01.757Z,4908
2016-12-08T09:11:01.725Z,4824
2016-12-08T09:12:01.785Z,4448
2016-12-08T09:13:01.895Z,4292
2016-12-08T09:14:01.962Z,4168
2016-12-08T09:15:02.406Z,4188
2016-12-08T09:16:01.312Z,4256
2016-12-08T09:17:02.165Z,4348
2016-12-08T09:18:01.930Z,4468
2016-12-08T09:19:01.919Z,4592
2016-12-08T09:20:01.790Z,4720
2016-12-08T09:21:02.211Z,4832
2016-12-08T09:22:02.425Z,4932
2016-12-08T09:23:02.091Z,5012
2016-12-08T09:24:02.408Z,5076
2016-12-08T09:25:02.240Z,5140
2016-12-08T09:26:01.836Z,5184
2016-12-08T09:27:02.328Z,5220
2016-12-08T09:28:02.046Z,5244
2016-12-08T09:29:01.775Z,5252
2016-12-08T09:30:01.781Z,5244
2016-12-08T09:31:01.785Z,5272
2016-12-08T09:32:01.584Z,5344
2016-12-08T09:33:02.320Z,5500
2016-12-08T09:34:02.244Z,5660
2016-12-08T09:35:02.585Z,5868
2016-12-08T09:36:01.909Z,6108
2016-12-08T09:37:02.205Z,6580
2016-12-08T09:38:02.288Z,6804
2016-12-08T09:39:02.675Z,6788
2016-12-08T09:40:02.215Z,6756
2016-12-08T09:41:02.376Z,6844
2016-12-08T09:42:02.305Z,6848
2016-12-08T09:43:02.670Z,6696
2016-12-08T09:44:02.320Z,6524
2016-12-08T09:45:02.586Z,6452
2016-12-08T09:46:01.614Z,6384
2016-12-08T09:47:01.682Z,6396
2016-12-08T09:48:02.777Z,6396
2016-12-08T09:49:02.092Z,6308
2016-12-08T09:50:01.923Z,6200
2016-12-08T09:51:02.966Z,5956
2016-12-08T09:52:02.429Z,5416
2016-12-08T09:53:02.763Z,5464
2016-12-08T09:54:01.933Z,5440
2016-12-08T09:55:02.320Z,5728
2016-12-08T09:56:02.698Z,5832
2016-12-08T09:57:02.852Z,5728
2016-12-08T09:58:02.468Z,6080
2016-12-08T09:59:02.813Z,6452
2016-12-08T10:00:02.480Z,6460
2016-12-08T10:01:02.637Z,6528
2016-12-08T10:02:01.863Z,6472
2016-12-08T10:03:02.618Z,6556
2016-12-08T10:04:03.044Z,6516
2016-12-08T10:05:02.181Z,6448
2016-12-08T10:06:02.741Z,6312
2016-12-08T10:07:02.548Z,6280
2016-12-08T10:08:02.531Z,6128
2016-12-08T10:09:02.125Z,6204
2016-12-08T10:10:01.816Z,6200
2016-12-08T10:11:02.693Z,6240
2016-12-08T10:12:03.399Z,6092
2016-12-08T10:13:02.242Z,6168
2016-12-08T10:14:02.407Z,6656
2016-12-08T10:15:02.882Z,7096
2016-12-08T10:16:02.293Z,7120
2016-12-08T10:17:02.307Z,7052
2016-12-08T10:18:04.213Z,7404
2016-12-08T10:19:02.610Z,7284
2016-12-08T10:20:02.722Z,7432
2016-12-08T10:21:02.936Z,7560
2016-12-08T10:22:03.091Z,7604
2016-12-08T10:23:02.728Z,7808
2016-12-08T10:24:03.498Z,7952
2016-12-08T10:25:02.505Z,8032
2016-12-08T10:26:03.162Z,8180
2016-12-08T10:27:02.651Z,8212
2016-12-08T10:28:03.083Z,8284
2016-12-08T10:29:02.412Z,8312
2016-12-08T10:30:02.800Z,8364
2016-12-08T10:31:03.208Z,8404
2016-12-08T10:32:02.930Z,8252
2016-12-08T10:33:02.776Z,8140
2016-12-08T10:34:03.074Z,8404
2016-12-08T10:35:03.001Z,8400
2016-12-08T10:36:03.916Z,8316
2016-12-08T10:37:02.668Z,8480
2016-12-08T10:38:02.980Z,8488
2016-12-08T10:39:03.395Z,8404
2016-12-08T10:40:02.713Z,8140
2016-12-08T10:41:02.582Z,8092
2016-12-08T10:42:02.584Z,8380
2016-12-08T10:43:02.538Z,7964
2016-12-08T10:44:03.416Z,7924
2016-12-08T10:45:02.997Z,7788
2016-12-08T10:46:03.482Z,7692
2016-12-08T10:47:02.747Z,7592
2016-12-08T10:48:03.076Z,7592
2016-12-08T10:49:02.770Z,7608
2016-12-08T10:50:02.921Z,7556
2016-12-08T10:51:03.796Z,7572
2016-12-08T10:52:02.882Z,7640
2016-12-08T10:53:03.414Z,7740
2016-12-08T10:54:02.495Z,7852
2016-12-08T10:55:02.975Z,8068
2016-12-08T10:56:02.987Z,8088
2016-12-08T10:57:03.723Z,8336
2016-12-08T10:58:02.922Z,8440
2016-12-08T10:59:03.465Z,8888
2016-12-08T11:00:02.644Z,9068
2016-12-08T11:01:03.216Z,8656
2016-12-08T11:02:03.634Z,8524
2016-12-08T11:03:03.627Z,8424
2016-12-08T11:04:02.681Z,8272
2016-12-08T11:05:02.962Z,8256
2016-12-08T11:06:02.808Z,8528
2016-12-08T11:07:03.384Z,8728
2016-12-08T11:08:03.159Z,8636
2016-12-08T11:09:04.136Z,8412
2016-12-08T11:10:03.276Z,8332
2016-12-08T11:11:03.316Z,8296
2016-12-08T11:12:03.325Z,8232
2016-12-08T11:13:03.983Z,8140
2016-12-08T11:14:03.372Z,8100
2016-12-08T11:15:03.560Z,8208
2016-12-08T11:16:03.896Z,8380
2016-12-08T11:17:03.596Z,8692
2016-12-08T11:18:03.149Z,8920
2016-12-08T11:19:03.662Z,8904
2016-12-08T11:20:03.521Z,8976
2016-12-08T11:21:04.523Z,9052
2016-12-08T11:22:03.137Z,9112
2016-12-08T11:23:03.162Z,9028
2016-12-08T11:24:03.156Z,8956
2016-12-08T11:25:03.983Z,8952
2016-12-08T11:26:04.988Z,8964
2016-12-08T11:27:04.119Z,8836
2016-12-08T11:28:03.585Z,8588
2016-12-08T11:29:03.028Z,8380
2016-12-08T11:30:03.170Z,8144
2016-12-08T11:31:04.242Z,7940
2016-12-08T11:32:03.620Z,7808
2016-12-08T11:33:03.579Z,7464
2016-12-08T11:34:03.858Z,7348
2016-12-08T11:35:02.985Z,6812
2016-12-08T11:36:04.163Z,6636
2016-12-08T11:37:03.932Z,6512
2016-12-08T11:38:04.037Z,6516
2016-12-08T11:39:04.510Z,6496
2016-12-08T11:40:04.425Z,6324
2016-12-08T11:41:04.014Z,6284
2016-12-08T11:42:03.888Z,6324
2016-12-08T11:43:04.398Z,6512
2016-12-08T11:44:04.177Z,6376
2016-12-08T11:45:03.479Z,6456
2016-12-08T11:46:04.861Z,6324
2016-12-08T11:47:04.545Z,6224
2016-12-08T11:48:03.819Z,6196
2016-12-08T11:49:05.165Z,6180
2016-12-08T11:50:03.844Z,6192
2016-12-08T11:51:04.118Z,6176
2016-12-08T11:52:03.830Z,6100
2016-12-08T11:53:04.667Z,6052
2016-12-08T11:54:04.047Z,5988
2016-12-08T11:55:04.212Z,5988
2016-12-08T11:56:04.002Z,6008
2016-12-08T11:57:03.830Z,6040
2016-12-08T11:58:04.676Z,5960
2016-12-08T11:59:04.702Z,6028
2016-12-08T12:00:05.245Z,5960
2016-12-08T12:01:04.850Z,5884
2016-12-08T12:02:03.901Z,5772
2016-12-08T12:03:04.760Z,5604
2016-12-08T12:04:04.447Z,5456
2016-12-08T12:05:03.661Z,5320
2016-12-08T12:06:04.081Z,5204
2016-12-08T12:07:04.651Z,5112
2016-12-08T12:08:04.281Z,5044
2016-12-08T12:09:04.328Z,4976
2016-12-08T12:10:04.885Z,4888
2016-12-08T12:11:05.056Z,4836
2016-12-08T12:12:04.715Z,4796
2016-12-08T12:13:05.194Z,4736
2016-12-08T12:14:04.810Z,4748
2016-12-08T12:15:04.810Z,4756
2016-12-08T12:16:04.965Z,4832
2016-12-08T12:17:04.907Z,4960
2016-12-08T12:18:03.983Z,5204
2016-12-08T12:19:04.547Z,5452
2016-12-08T12:20:04.902Z,5636
2016-12-08T12:21:04.401Z,5868
2016-12-08T12:22:04.527Z,5812
2016-12-08T12:23:05.091Z,5728
2016-12-08T12:24:04.279Z,5596
2016-12-08T12:25:04.541Z,5516
2016-12-08T12:26:04.487Z,5416
2016-12-08T12:27:04.987Z,5336
2016-12-08T12:28:04.847Z,5468
2016-12-08T12:29:05.187Z,5716
2016-12-08T12:30:04.899Z,6000
2016-12-08T12:31:04.585Z,6216
2016-12-08T12:32:04.625Z,6404
2016-12-08T12:33:05.639Z,6560
2016-12-08T12:34:04.391Z,6744
2016-12-08T12:35:05.797Z,7008
2016-12-08T12:36:04.924Z,7180
2016-12-08T12:37:04.576Z,7032
2016-12-08T12:38:05.869Z,7152
2016-12-08T12:39:04.656Z,7136
2016-12-08T12:40:05.575Z,7060
2016-12-08T12:41:04.799Z,6932
2016-12-08T12:42:05.514Z,6784
2016-12-08T12:43:04.600Z,6724
2016-12-08T12:44:05.748Z,6880
2016-12-08T12:45:05.160Z,7012
2016-12-08T12:46:05.708Z,7412
2016-12-08T12:47:04.696Z,7836
2016-12-08T12:48:04.551Z,8148
2016-12-08T12:49:05.304Z,8228
2016-12-08T12:50:04.599Z,8376
2016-12-08T12:51:05.133Z,8760
2016-12-08T12:52:04.895Z,8936
2016-12-08T12:53:04.834Z,9516
2016-12-08T12:54:05.810Z,9500
2016-12-08T12:55:04.755Z,9444
2016-12-08T12:56:05.380Z,9296
2016-12-08T12:57:04.575Z,9008
2016-12-08T12:58:05.960Z,8732
2016-12-08T12:59:05.101Z,8432
2016-12-08T13:00:05.328Z,8452
2016-12-08T13:01:04.935Z,8608
2016-12-08T13:02:05.186Z,8644
2016-12-08T13:03:05.343Z,8544
2016-12-08T13:04:04.882Z,8300
2016-12-08T13:05:05.039Z,8448
2016-12-08T13:06:05.443Z,8476
2016-12-08T13:07:05.384Z,8188
2016-12-08T13:08:05.855Z,7480
2016-12-08T13:09:05.253Z,7164
2016-12-08T13:10:05.428Z,6992
2016-12-08T13:11:05.128Z,6816
2016-12-08T13:12:04.953Z,6648
2016-12-08T13:13:05.756Z,6512
2016-12-08T13:14:05.197Z,6364
2016-12-08T13:15:05.243Z,6116
2016-12-08T13:16:05.239Z,5888
2016-12-08T13:17:06.083Z,5724
2016-12-08T13:18:05.555Z,5600
2016-12-08T13:19:04.800Z,5564
2016-12-08T13:20:04.950Z,5440
2016-12-08T13:21:05.433Z,5344
2016-12-08T13:22:05.511Z,5232
2016-12-08T13:23:05.702Z,5136
2016-12-08T13:24:05.250Z,5016
2016-12-08T13:25:05.040Z,4920
2016-12-08T13:26:06.271Z,4872
2016-12-08T13:27:06.075Z,4808
2016-12-08T13:28:05.448Z,4684
2016-12-08T13:29:05.649Z,4516
2016-12-08T13:30:05.719Z,4384
2016-12-08T13:31:04.991Z,4324
2016-12-08T13:32:05.548Z,4312
2016-12-08T13:33:06.290Z,4288
2016-12-08T13:34:06.156Z,4248
2016-12-08T13:35:05.341Z,4228
2016-12-08T13:36:05.342Z,4244
2016-12-08T13:37:05.528Z,4252
2016-12-08T13:38:05.861Z,4188
2016-12-08T13:39:05.826Z,4084
2016-12-08T13:40:06.471Z,3984
2016-12-08T13:41:05.265Z,3928
2016-12-08T13:42:05.632Z,3904
2016-12-08T13:43:06.107Z,3876
2016-12-08T13:44:06.009Z,3864
2016-12-08T13:45:05.848Z,3864
2016-12-08T13:46:05.678Z,3836
2016-12-08T13:47:05.410Z,3808
2016-12-08T13:48:05.863Z,3752
2016-12-08T13:49:06.214Z,3680
2016-12-08T13:50:07.210Z,3600
2016-12-08T13:51:06.091Z,3496
2016-12-08T13:52:05.793Z,3392
2016-12-08T13:53:06.305Z,3284
2016-12-08T13:54:06.240Z,3176
2016-12-08T13:55:06.781Z,3076
2016-12-08T13:56:07.329Z,2984
2016-12-08T13:57:05.898Z,2908
2016-12-08T13:58:05.334Z,2840
2016-12-08T13:59:07.107Z,2776
2016-12-08T14:00:05.511Z,2728
2016-12-08T14:01:05.983Z,2696
2016-12-08T14:02:07.021Z,2664
2016-12-08T14:03:06.823Z,2652